sensor_id;sensor_type;location;lat;lon;timestamp;P1;durP1;ratioP1;P2;durP2;ratioP2
13075;SDS011;6604;52.484;13.330;2022-10-17T07:48:05;9.17;;;5.70;;
13075;SDS011;6604;52.484;13.330;2022-10-17T07:50:32;12.53;;;6.87;;
13075;SDS011;6604;52.484;13.330;2022-10-17T07:52:58;7.70;;;5.63;;
13075;SDS011;6604;52.484;13.330;2022-10-17T07:55:24;9.03;;;5.07;;
13075;SDS011;6604;52.484;13.330;2022-10-17T07:57:51;8.27;;;4.93;;
13075;SDS011;6604;52.484;13.330;2022-10-17T08:00:17;9.37;;;5.70;;
13075;SDS011;6604;52.484;13.330;2022-10-17T08:02:43;12.23;;;6.53;;
13075;SDS011;6604;52.484;13.330;2022-10-17T08:05:11;10.63;;;6.70;;
13075;SDS011;6604;52.484;13.330;2022-10-17T08:07:38;14.60;;;8.57;;
13075;SDS011;6604;52.484;13.330;2022-10-17T08:10:06;13.77;;;10.27;;
13075;SDS011;6604;52.484;13.330;2022-10-17T08:12:32;18.27;;;11.07;;
13075;SDS011;6604;52.484;13.330;2022-10-17T08:14:58;21.53;;;14.53;;
13075;SDS011;6604;52.484;13.330;2022-10-17T08:17:25;15.73;;;11.10;;
13075;SDS011;6604;52.484;13.330;2022-10-17T08:19:52;13.43;;;9.63;;
13075;SDS011;6604;52.484;13.330;2022-10-17T08:22:20;13.70;;;9.27;;
13075;SDS011;6604;52.484;13.330;2022-10-17T08:24:46;18.40;;;10.53;;
13075;SDS011;6604;52.484;13.330;2022-10-17T08:27:13;15.80;;;9.13;;
13075;SDS011;6604;52.484;13.330;2022-10-17T08:29:45;12.53;;;7.23;;
13075;SDS011;6604;52.484;13.330;2022-10-17T08:32:13;20.13;;;11.77;;
13075;SDS011;6604;52.484;13.330;2022-10-17T08:34:39;14.00;;;8.10;;
13075;SDS011;6604;52.484;13.330;2022-10-17T08:37:05;15.70;;;9.20;;
13075;SDS011;6604;52.484;13.330;2022-10-17T08:39:33;14.53;;;6.87;;
13075;SDS011;6604;52.484;13.330;2022-10-17T08:42:02;16.93;;;6.43;;
13075;SDS011;6604;52.484;13.330;2022-10-17T08:44:37;22.37;;;6.47;;
13075;SDS011;6604;52.484;13.330;2022-10-17T08:47:11;10.40;;;4.77;;
13075;SDS011;6604;52.484;13.330;2022-10-17T08:49:40;10.43;;;5.10;;
13075;SDS011;6604;52.484;13.330;2022-10-17T08:52:13;11.10;;;4.57;;
13075;SDS011;6604;52.484;13.330;2022-10-17T08:54:42;16.17;;;4.50;;
13075;SDS011;6604;52.484;13.330;2022-10-17T08:57:10;11.60;;;4.27;;
13075;SDS011;6604;52.484;13.330;2022-10-17T08:59:37;6.83;;;3.80;;
13075;SDS011;6604;52.484;13.330;2022-10-17T09:04:53;14.67;;;12.17;;
13075;SDS011;6604;52.484;13.330;2022-10-17T09:07:26;19.97;;;15.60;;
13075;SDS011;6604;52.484;13.330;2022-10-17T09:09:58;26.47;;;19.77;;
13075;SDS011;6604;52.484;13.330;2022-10-17T09:12:30;8.67;;;5.67;;
13075;SDS011;6604;52.484;13.330;2022-10-17T09:15:02;8.03;;;5.70;;
13075;SDS011;6604;52.484;13.330;2022-10-17T09:17:35;9.00;;;4.60;;
13075;SDS011;6604;52.484;13.330;2022-10-17T09:20:05;7.23;;;3.70;;
13075;SDS011;6604;52.484;13.330;2022-10-17T09:22:36;4.80;;;3.67;;
13075;SDS011;6604;52.484;13.330;2022-10-17T09:25:08;8.77;;;4.50;;
13075;SDS011;6604;52.484;13.330;2022-10-17T09:27:39;6.73;;;4.20;;
13075;SDS011;6604;52.484;13.330;2022-10-17T09:32:51;7.53;;;4.90;;
13075;SDS011;6604;52.484;13.330;2022-10-17T09:35:18;11.33;;;6.93;;
13075;SDS011;6604;52.484;13.330;2022-10-17T09:37:45;8.87;;;7.83;;
13075;SDS011;6604;52.484;13.330;2022-10-17T09:40:17;11.87;;;9.90;;
13075;SDS011;6604;52.484;13.330;2022-10-17T09:42:44;7.57;;;3.90;;
13075;SDS011;6604;52.484;13.330;2022-10-17T09:45:14;9.90;;;3.90;;
13075;SDS011;6604;52.484;13.330;2022-10-17T09:47:44;6.10;;;3.60;;
13075;SDS011;6604;52.484;13.330;2022-10-17T09:50:13;5.27;;;3.70;;
13075;SDS011;6604;52.484;13.330;2022-10-17T09:52:41;6.17;;;4.10;;
13075;SDS011;6604;52.484;13.330;2022-10-17T09:55:14;7.40;;;4.10;;
13075;SDS011;6604;52.484;13.330;2022-10-17T09:57:54;5.60;;;3.57;;
13075;SDS011;6604;52.484;13.330;2022-10-17T10:00:21;4.03;;;3.63;;
13075;SDS011;6604;52.484;13.330;2022-10-17T10:02:48;6.67;;;3.67;;
13075;SDS011;6604;52.484;13.330;2022-10-17T10:05:15;6.67;;;3.80;;
13075;SDS011;6604;52.484;13.330;2022-10-17T10:07:42;6.73;;;4.23;;
13075;SDS011;6604;52.484;13.330;2022-10-17T10:10:21;4.37;;;3.70;;
13075;SDS011;6604;52.484;13.330;2022-10-17T10:13:02;7.80;;;3.83;;
13075;SDS011;6604;52.484;13.330;2022-10-17T10:15:30;4.27;;;3.77;;
13075;SDS011;6604;52.484;13.330;2022-10-17T10:17:57;7.20;;;3.67;;
13075;SDS011;6604;52.484;13.330;2022-10-17T10:20:25;7.33;;;4.00;;
13075;SDS011;6604;52.484;13.330;2022-10-17T10:23:03;5.33;;;3.67;;
13075;SDS011;6604;52.484;13.330;2022-10-17T10:25:33;6.47;;;3.73;;
13075;SDS011;6604;52.484;13.330;2022-10-17T10:28:01;7.57;;;4.27;;
13075;SDS011;6604;52.484;13.330;2022-10-17T10:30:35;6.03;;;3.87;;
13075;SDS011;6604;52.484;13.330;2022-10-17T10:33:01;6.27;;;4.17;;
13075;SDS011;6604;52.484;13.330;2022-10-17T10:35:29;3.50;;;3.20;;
13075;SDS011;6604;52.484;13.330;2022-10-17T10:37:56;9.80;;;4.50;;
13075;SDS011;6604;52.484;13.330;2022-10-17T10:40:25;6.20;;;3.97;;
13075;SDS011;6604;52.484;13.330;2022-10-17T10:42:54;3.90;;;2.93;;
13075;SDS011;6604;52.484;13.330;2022-10-17T10:45:23;6.10;;;3.60;;
13075;SDS011;6604;52.484;13.330;2022-10-17T10:47:50;5.20;;;3.10;;
13075;SDS011;6604;52.484;13.330;2022-10-17T10:50:28;6.90;;;3.30;;
13075;SDS011;6604;52.484;13.330;2022-10-17T10:52:59;10.30;;;3.50;;
13075;SDS011;6604;52.484;13.330;2022-10-17T10:55:31;5.83;;;3.30;;
13075;SDS011;6604;52.484;13.330;2022-10-17T10:58:03;11.77;;;4.17;;
13075;SDS011;6604;52.484;13.330;2022-10-17T11:00:33;6.90;;;3.53;;
13075;SDS011;6604;52.484;13.330;2022-10-17T11:03:01;6.13;;;3.20;;
13075;SDS011;6604;52.484;13.330;2022-10-17T11:05:36;7.43;;;3.73;;
13075;SDS011;6604;52.484;13.330;2022-10-17T11:08:06;7.00;;;2.77;;
13075;SDS011;6604;52.484;13.330;2022-10-17T11:10:36;3.07;;;2.77;;
13075;SDS011;6604;52.484;13.330;2022-10-17T11:13:04;6.40;;;3.40;;
13075;SDS011;6604;52.484;13.330;2022-10-17T11:15:34;18.50;;;11.30;;
13075;SDS011;6604;52.484;13.330;2022-10-17T11:18:02;15.93;;;11.70;;
13075;SDS011;6604;52.484;13.330;2022-10-17T11:20:33;16.53;;;9.70;;
13075;SDS011;6604;52.484;13.330;2022-10-17T11:23:03;17.47;;;14.77;;
13075;SDS011;6604;52.484;13.330;2022-10-17T11:25:36;10.47;;;7.17;;
13075;SDS011;6604;52.484;13.330;2022-10-17T11:28:03;14.37;;;10.87;;
13075;SDS011;6604;52.484;13.330;2022-10-17T11:30:41;10.20;;;7.73;;
13075;SDS011;6604;52.484;13.330;2022-10-17T11:33:08;7.30;;;4.67;;
13075;SDS011;6604;52.484;13.330;2022-10-17T11:35:36;16.83;;;10.30;;
13075;SDS011;6604;52.484;13.330;2022-10-17T11:38:05;7.50;;;6.03;;
13075;SDS011;6604;52.484;13.330;2022-10-17T11:40:34;9.43;;;4.70;;
13075;SDS011;6604;52.484;13.330;2022-10-17T11:43:03;7.90;;;3.10;;
13075;SDS011;6604;52.484;13.330;2022-10-17T11:45:32;8.83;;;3.20;;
13075;SDS011;6604;52.484;13.330;2022-10-17T11:48:03;8.10;;;2.90;;
13075;SDS011;6604;52.484;13.330;2022-10-17T11:50:31;5.53;;;3.00;;
13075;SDS011;6604;52.484;13.330;2022-10-17T11:52:59;6.43;;;3.00;;
13075;SDS011;6604;52.484;13.330;2022-10-17T11:55:27;8.20;;;3.57;;
13075;SDS011;6604;52.484;13.330;2022-10-17T11:57:57;11.70;;;3.77;;
13075;SDS011;6604;52.484;13.330;2022-10-17T12:00:30;9.17;;;3.20;;
13075;SDS011;6604;52.484;13.330;2022-10-17T12:03:04;9.53;;;3.53;;
13075;SDS011;6604;52.484;13.330;2022-10-17T12:05:32;9.17;;;3.03;;
13075;SDS011;6604;52.484;13.330;2022-10-17T12:08:03;7.30;;;3.20;;
13075;SDS011;6604;52.484;13.330;2022-10-17T12:10:32;8.73;;;3.77;;
13075;SDS011;6604;52.484;13.330;2022-10-17T12:15:47;8.60;;;4.30;;
13075;SDS011;6604;52.484;13.330;2022-10-17T12:18:15;10.10;;;4.10;;
13075;SDS011;6604;52.484;13.330;2022-10-17T12:20:42;8.73;;;4.00;;
13075;SDS011;6604;52.484;13.330;2022-10-17T12:23:19;7.63;;;3.30;;
13075;SDS011;6604;52.484;13.330;2022-10-17T12:25:47;8.80;;;3.97;;
13075;SDS011;6604;52.484;13.330;2022-10-17T12:28:15;4.70;;;3.30;;
13075;SDS011;6604;52.484;13.330;2022-10-17T12:30:52;4.33;;;3.03;;
13075;SDS011;6604;52.484;13.330;2022-10-17T12:33:20;4.53;;;2.93;;
13075;SDS011;6604;52.484;13.330;2022-10-17T12:35:48;5.80;;;3.20;;
13075;SDS011;6604;52.484;13.330;2022-10-17T12:38:19;6.07;;;3.37;;
13075;SDS011;6604;52.484;13.330;2022-10-17T12:40:47;4.17;;;3.20;;
13075;SDS011;6604;52.484;13.330;2022-10-17T12:46:08;5.80;;;3.20;;
13075;SDS011;6604;52.484;13.330;2022-10-17T12:51:21;6.63;;;3.57;;
13075;SDS011;6604;52.484;13.330;2022-10-17T12:53:51;8.13;;;3.23;;
13075;SDS011;6604;52.484;13.330;2022-10-17T12:56:21;5.77;;;2.90;;
13075;SDS011;6604;52.484;13.330;2022-10-17T12:58:55;5.57;;;3.10;;
13075;SDS011;6604;52.484;13.330;2022-10-17T13:01:24;8.53;;;3.20;;
13075;SDS011;6604;52.484;13.330;2022-10-17T13:03:52;10.47;;;3.30;;
13075;SDS011;6604;52.484;13.330;2022-10-17T13:06:19;5.93;;;3.30;;
13075;SDS011;6604;52.484;13.330;2022-10-17T13:08:49;7.23;;;3.07;;
13075;SDS011;6604;52.484;13.330;2022-10-17T13:11:20;8.80;;;3.33;;
13075;SDS011;6604;52.484;13.330;2022-10-17T13:13:48;4.57;;;2.93;;
13075;SDS011;6604;52.484;13.330;2022-10-17T13:16:28;7.13;;;3.43;;
13075;SDS011;6604;52.484;13.330;2022-10-17T13:18:55;5.80;;;3.03;;
13075;SDS011;6604;52.484;13.330;2022-10-17T13:21:21;6.83;;;2.90;;
13075;SDS011;6604;52.484;13.330;2022-10-17T13:23:49;6.13;;;3.00;;
13075;SDS011;6604;52.484;13.330;2022-10-17T13:26:17;6.87;;;2.80;;
13075;SDS011;6604;52.484;13.330;2022-10-17T13:28:44;3.87;;;2.63;;
13075;SDS011;6604;52.484;13.330;2022-10-17T13:31:27;5.33;;;2.60;;
13075;SDS011;6604;52.484;13.330;2022-10-17T13:33:55;4.47;;;2.73;;
13075;SDS011;6604;52.484;13.330;2022-10-17T13:36:21;4.00;;;2.63;;
13075;SDS011;6604;52.484;13.330;2022-10-17T13:38:49;4.60;;;2.90;;
13075;SDS011;6604;52.484;13.330;2022-10-17T13:41:16;5.47;;;3.00;;
13075;SDS011;6604;52.484;13.330;2022-10-17T13:43:43;3.03;;;2.63;;
13075;SDS011;6604;52.484;13.330;2022-10-17T13:46:14;5.13;;;2.43;;
13075;SDS011;6604;52.484;13.330;2022-10-17T13:48:42;4.33;;;2.77;;
13075;SDS011;6604;52.484;13.330;2022-10-17T13:51:09;4.80;;;3.00;;
13075;SDS011;6604;52.484;13.330;2022-10-17T13:53:38;3.80;;;2.17;;
13075;SDS011;6604;52.484;13.330;2022-10-17T13:56:16;4.83;;;2.40;;
13075;SDS011;6604;52.484;13.330;2022-10-17T13:58:44;4.57;;;2.43;;
13075;SDS011;6604;52.484;13.330;2022-10-17T14:01:11;6.33;;;2.53;;
13075;SDS011;6604;52.484;13.330;2022-10-17T14:03:39;5.77;;;3.10;;
13075;SDS011;6604;52.484;13.330;2022-10-17T14:06:07;7.23;;;2.93;;
13075;SDS011;6604;52.484;13.330;2022-10-17T14:08:37;8.27;;;2.90;;
13075;SDS011;6604;52.484;13.330;2022-10-17T14:11:12;6.93;;;2.50;;
13075;SDS011;6604;52.484;13.330;2022-10-17T14:13:40;6.83;;;2.90;;
13075;SDS011;6604;52.484;13.330;2022-10-17T14:16:08;3.87;;;2.60;;
13075;SDS011;6604;52.484;13.330;2022-10-17T14:18:35;3.07;;;2.40;;
13075;SDS011;6604;52.484;13.330;2022-10-17T14:21:02;4.37;;;2.57;;
13075;SDS011;6604;52.484;13.330;2022-10-17T14:23:31;4.47;;;2.80;;
13075;SDS011;6604;52.484;13.330;2022-10-17T14:26:08;3.33;;;2.80;;
13075;SDS011;6604;52.484;13.330;2022-10-17T14:28:36;3.77;;;2.63;;
13075;SDS011;6604;52.484;13.330;2022-10-17T14:33:45;6.30;;;2.80;;
13075;SDS011;6604;52.484;13.330;2022-10-17T14:36:12;7.70;;;3.20;;
13075;SDS011;6604;52.484;13.330;2022-10-17T14:38:43;5.10;;;2.93;;
13075;SDS011;6604;52.484;13.330;2022-10-17T14:41:12;6.53;;;2.90;;
13075;SDS011;6604;52.484;13.330;2022-10-17T14:43:39;5.73;;;2.87;;
13075;SDS011;6604;52.484;13.330;2022-10-17T14:46:10;8.47;;;2.67;;
13075;SDS011;6604;52.484;13.330;2022-10-17T14:48:38;5.97;;;2.77;;
13075;SDS011;6604;52.484;13.330;2022-10-17T14:51:09;6.70;;;2.70;;
13075;SDS011;6604;52.484;13.330;2022-10-17T14:53:36;5.57;;;2.80;;
13075;SDS011;6604;52.484;13.330;2022-10-17T14:56:04;6.13;;;3.23;;
13075;SDS011;6604;52.484;13.330;2022-10-17T14:58:44;4.93;;;2.90;;
13075;SDS011;6604;52.484;13.330;2022-10-17T15:01:11;4.90;;;2.97;;
13075;SDS011;6604;52.484;13.330;2022-10-17T15:03:37;4.73;;;2.73;;
13075;SDS011;6604;52.484;13.330;2022-10-17T15:06:11;4.47;;;3.07;;
13075;SDS011;6604;52.484;13.330;2022-10-17T15:08:40;5.17;;;3.13;;
13075;SDS011;6604;52.484;13.330;2022-10-17T15:11:07;4.10;;;3.00;;
13075;SDS011;6604;52.484;13.330;2022-10-17T15:13:35;4.43;;;3.20;;
13075;SDS011;6604;52.484;13.330;2022-10-17T15:16:01;6.40;;;2.97;;
13075;SDS011;6604;52.484;13.330;2022-10-17T15:18:28;4.30;;;2.90;;
13075;SDS011;6604;52.484;13.330;2022-10-17T15:20:54;6.50;;;3.57;;
13075;SDS011;6604;52.484;13.330;2022-10-17T15:23:22;3.37;;;2.80;;
13075;SDS011;6604;52.484;13.330;2022-10-17T15:25:49;5.80;;;3.07;;
13075;SDS011;6604;52.484;13.330;2022-10-17T15:28:15;3.10;;;2.67;;
13075;SDS011;6604;52.484;13.330;2022-10-17T15:30:41;5.70;;;3.40;;
13075;SDS011;6604;52.484;13.330;2022-10-17T15:33:08;4.63;;;2.90;;
13075;SDS011;6604;52.484;13.330;2022-10-17T15:35:35;5.33;;;2.97;;
13075;SDS011;6604;52.484;13.330;2022-10-17T15:38:01;8.00;;;3.57;;
13075;SDS011;6604;52.484;13.330;2022-10-17T15:40:29;5.77;;;2.80;;
13075;SDS011;6604;52.484;13.330;2022-10-17T15:42:56;4.13;;;3.33;;
13075;SDS011;6604;52.484;13.330;2022-10-17T15:45:22;6.30;;;3.37;;
13075;SDS011;6604;52.484;13.330;2022-10-17T15:47:49;3.80;;;3.10;;
13075;SDS011;6604;52.484;13.330;2022-10-17T15:50:16;8.27;;;4.00;;
13075;SDS011;6604;52.484;13.330;2022-10-17T15:52:43;4.83;;;3.40;;
13075;SDS011;6604;52.484;13.330;2022-10-17T15:55:11;6.63;;;3.30;;
13075;SDS011;6604;52.484;13.330;2022-10-17T15:57:39;6.53;;;3.67;;
13075;SDS011;6604;52.484;13.330;2022-10-17T16:00:09;5.47;;;3.93;;
13075;SDS011;6604;52.484;13.330;2022-10-17T16:02:39;6.27;;;3.77;;
13075;SDS011;6604;52.484;13.330;2022-10-17T16:05:07;6.63;;;3.47;;
13075;SDS011;6604;52.484;13.330;2022-10-17T16:07:35;5.60;;;3.50;;
13075;SDS011;6604;52.484;13.330;2022-10-17T16:10:02;8.50;;;3.60;;
13075;SDS011;6604;52.484;13.330;2022-10-17T16:12:28;5.57;;;3.60;;
13075;SDS011;6604;52.484;13.330;2022-10-17T16:15:01;4.27;;;3.17;;
13075;SDS011;6604;52.484;13.330;2022-10-17T16:17:28;5.07;;;3.10;;
13075;SDS011;6604;52.484;13.330;2022-10-17T16:19:54;4.17;;;3.70;;
13075;SDS011;6604;52.484;13.330;2022-10-17T16:22:23;6.63;;;4.00;;
13075;SDS011;6604;52.484;13.330;2022-10-17T16:24:51;4.40;;;3.70;;
13075;SDS011;6604;52.484;13.330;2022-10-17T16:27:22;6.40;;;3.60;;
13075;SDS011;6604;52.484;13.330;2022-10-17T16:29:49;10.23;;;3.93;;
13075;SDS011;6604;52.484;13.330;2022-10-17T16:32:16;8.10;;;3.67;;
13075;SDS011;6604;52.484;13.330;2022-10-17T16:34:43;5.00;;;3.47;;
13075;SDS011;6604;52.484;13.330;2022-10-17T16:37:09;5.27;;;3.80;;
13075;SDS011;6604;52.484;13.330;2022-10-17T16:39:35;4.23;;;3.33;;
13075;SDS011;6604;52.484;13.330;2022-10-17T16:42:02;6.50;;;3.80;;
13075;SDS011;6604;52.484;13.330;2022-10-17T16:44:28;10.00;;;4.00;;
13075;SDS011;6604;52.484;13.330;2022-10-17T16:46:55;8.17;;;4.40;;
13075;SDS011;6604;52.484;13.330;2022-10-17T16:49:22;5.50;;;3.90;;
13075;SDS011;6604;52.484;13.330;2022-10-17T16:51:49;4.30;;;3.40;;
13075;SDS011;6604;52.484;13.330;2022-10-17T16:54:15;5.40;;;4.17;;
13075;SDS011;6604;52.484;13.330;2022-10-17T16:56:42;16.90;;;5.10;;
13075;SDS011;6604;52.484;13.330;2022-10-17T16:59:08;5.67;;;3.60;;
13075;SDS011;6604;52.484;13.330;2022-10-17T17:01:35;25.37;;;17.80;;
13075;SDS011;6604;52.484;13.330;2022-10-17T17:04:03;28.87;;;20.80;;
13075;SDS011;6604;52.484;13.330;2022-10-17T17:06:31;17.87;;;12.27;;
13075;SDS011;6604;52.484;13.330;2022-10-17T17:08:57;10.07;;;7.23;;
13075;SDS011;6604;52.484;13.330;2022-10-17T17:11:24;7.57;;;4.27;;
13075;SDS011;6604;52.484;13.330;2022-10-17T17:13:51;10.03;;;4.63;;
13075;SDS011;6604;52.484;13.330;2022-10-17T17:16:19;7.53;;;4.27;;
13075;SDS011;6604;52.484;13.330;2022-10-17T17:18:46;6.53;;;3.70;;
13075;SDS011;6604;52.484;13.330;2022-10-17T17:21:15;10.23;;;4.03;;
13075;SDS011;6604;52.484;13.330;2022-10-17T17:23:43;6.63;;;3.57;;
13075;SDS011;6604;52.484;13.330;2022-10-17T17:26:10;6.10;;;4.10;;
13075;SDS011;6604;52.484;13.330;2022-10-17T17:28:37;6.33;;;4.07;;
13075;SDS011;6604;52.484;13.330;2022-10-17T17:31:05;16.37;;;9.70;;
13075;SDS011;6604;52.484;13.330;2022-10-17T17:33:31;22.63;;;14.07;;
13075;SDS011;6604;52.484;13.330;2022-10-17T17:35:58;13.97;;;10.17;;
13075;SDS011;6604;52.484;13.330;2022-10-17T17:38:25;8.00;;;5.73;;
13075;SDS011;6604;52.484;13.330;2022-10-17T17:40:55;7.17;;;4.60;;
13075;SDS011;6604;52.484;13.330;2022-10-17T17:43:21;5.60;;;3.90;;
13075;SDS011;6604;52.484;13.330;2022-10-17T17:45:48;7.17;;;3.90;;
13075;SDS011;6604;52.484;13.330;2022-10-17T17:48:14;6.73;;;3.47;;
13075;SDS011;6604;52.484;13.330;2022-10-17T17:50:42;6.70;;;4.00;;
13075;SDS011;6604;52.484;13.330;2022-10-17T17:53:10;5.03;;;3.97;;
13075;SDS011;6604;52.484;13.330;2022-10-17T17:55:36;6.63;;;4.77;;
13075;SDS011;6604;52.484;13.330;2022-10-17T17:58:04;6.30;;;5.27;;
13075;SDS011;6604;52.484;13.330;2022-10-17T18:00:32;10.43;;;5.07;;
13075;SDS011;6604;52.484;13.330;2022-10-17T18:02:59;8.53;;;4.50;;
13075;SDS011;6604;52.484;13.330;2022-10-17T18:05:25;7.60;;;4.40;;
13075;SDS011;6604;52.484;13.330;2022-10-17T18:07:52;6.10;;;4.50;;
13075;SDS011;6604;52.484;13.330;2022-10-17T18:10:18;5.07;;;4.53;;
13075;SDS011;6604;52.484;13.330;2022-10-17T18:12:44;6.67;;;4.17;;
13075;SDS011;6604;52.484;13.330;2022-10-17T18:15:12;9.67;;;4.10;;
13075;SDS011;6604;52.484;13.330;2022-10-17T18:17:39;7.07;;;4.30;;
13075;SDS011;6604;52.484;13.330;2022-10-17T18:20:05;7.77;;;3.70;;
13075;SDS011;6604;52.484;13.330;2022-10-17T18:22:32;10.23;;;4.03;;
13075;SDS011;6604;52.484;13.330;2022-10-17T18:24:59;5.37;;;3.70;;
13075;SDS011;6604;52.484;13.330;2022-10-17T18:27:26;5.97;;;3.90;;
13075;SDS011;6604;52.484;13.330;2022-10-17T18:29:52;10.53;;;7.37;;
13075;SDS011;6604;52.484;13.330;2022-10-17T18:32:20;7.93;;;5.30;;
13075;SDS011;6604;52.484;13.330;2022-10-17T18:34:46;5.03;;;4.10;;
13075;SDS011;6604;52.484;13.330;2022-10-17T18:37:12;7.37;;;4.00;;
13075;SDS011;6604;52.484;13.330;2022-10-17T18:39:39;8.67;;;3.90;;
13075;SDS011;6604;52.484;13.330;2022-10-17T18:42:05;7.03;;;3.57;;
13075;SDS011;6604;52.484;13.330;2022-10-17T18:44:32;4.47;;;3.77;;
13075;SDS011;6604;52.484;13.330;2022-10-17T18:46:58;7.13;;;4.30;;
13075;SDS011;6604;52.484;13.330;2022-10-17T18:49:26;6.80;;;3.90;;
13075;SDS011;6604;52.484;13.330;2022-10-17T18:51:52;6.60;;;4.63;;
13075;SDS011;6604;52.484;13.330;2022-10-17T18:54:19;6.27;;;4.30;;
13075;SDS011;6604;52.484;13.330;2022-10-17T18:56:46;10.10;;;4.83;;
13075;SDS011;6604;52.484;13.330;2022-10-17T18:59:12;9.70;;;5.03;;
13075;SDS011;6604;52.484;13.330;2022-10-17T19:01:39;8.03;;;5.60;;
13075;SDS011;6604;52.484;13.330;2022-10-17T19:04:07;12.23;;;9.17;;
13075;SDS011;6604;52.484;13.330;2022-10-17T19:06:36;12.07;;;8.07;;
13075;SDS011;6604;52.484;13.330;2022-10-17T19:09:03;8.73;;;6.47;;
13075;SDS011;6604;52.484;13.330;2022-10-17T19:11:30;14.13;;;10.70;;
13075;SDS011;6604;52.484;13.330;2022-10-17T19:13:57;15.53;;;10.23;;
13075;SDS011;6604;52.484;13.330;2022-10-17T19:16:25;10.30;;;7.80;;
13075;SDS011;6604;52.484;13.330;2022-10-17T19:18:52;13.97;;;7.20;;
13075;SDS011;6604;52.484;13.330;2022-10-17T19:21:19;7.73;;;5.70;;
13075;SDS011;6604;52.484;13.330;2022-10-17T19:23:49;7.97;;;6.27;;
13075;SDS011;6604;52.484;13.330;2022-10-17T19:26:16;9.37;;;5.57;;
13075;SDS011;6604;52.484;13.330;2022-10-17T19:28:42;14.67;;;8.53;;
13075;SDS011;6604;52.484;13.330;2022-10-17T19:31:09;8.97;;;6.47;;
13075;SDS011;6604;52.484;13.330;2022-10-17T19:33:35;8.87;;;5.90;;
13075;SDS011;6604;52.484;13.330;2022-10-17T19:36:02;6.90;;;5.00;;
13075;SDS011;6604;52.484;13.330;2022-10-17T19:38:29;7.13;;;5.13;;
13075;SDS011;6604;52.484;13.330;2022-10-17T19:40:57;10.13;;;5.80;;
13075;SDS011;6604;52.484;13.330;2022-10-17T19:43:24;11.80;;;6.70;;
13075;SDS011;6604;52.484;13.330;2022-10-17T19:45:53;10.30;;;6.20;;
13075;SDS011;6604;52.484;13.330;2022-10-17T19:48:20;7.43;;;6.37;;
13075;SDS011;6604;52.484;13.330;2022-10-17T19:50:47;8.87;;;6.30;;
13075;SDS011;6604;52.484;13.330;2022-10-17T19:53:16;10.23;;;6.30;;
13075;SDS011;6604;52.484;13.330;2022-10-17T19:55:43;9.93;;;6.17;;
13075;SDS011;6604;52.484;13.330;2022-10-17T19:58:11;9.73;;;5.50;;
13075;SDS011;6604;52.484;13.330;2022-10-17T20:00:37;9.27;;;6.33;;
13075;SDS011;6604;52.484;13.330;2022-10-17T20:03:04;10.47;;;6.33;;
13075;SDS011;6604;52.484;13.330;2022-10-17T20:05:30;9.47;;;5.50;;
13075;SDS011;6604;52.484;13.330;2022-10-17T20:07:56;9.40;;;6.27;;
13075;SDS011;6604;52.484;13.330;2022-10-17T20:10:23;9.50;;;5.80;;
13075;SDS011;6604;52.484;13.330;2022-10-17T20:12:49;10.70;;;7.20;;
13075;SDS011;6604;52.484;13.330;2022-10-17T20:15:17;8.13;;;6.37;;
13075;SDS011;6604;52.484;13.330;2022-10-17T20:17:43;9.33;;;5.93;;
13075;SDS011;6604;52.484;13.330;2022-10-17T20:20:10;10.30;;;6.40;;
13075;SDS011;6604;52.484;13.330;2022-10-17T20:22:36;9.23;;;6.13;;
13075;SDS011;6604;52.484;13.330;2022-10-17T20:25:03;10.50;;;6.10;;
13075;SDS011;6604;52.484;13.330;2022-10-17T20:27:29;9.03;;;6.47;;
13075;SDS011;6604;52.484;13.330;2022-10-17T20:29:56;10.33;;;6.20;;
13075;SDS011;6604;52.484;13.330;2022-10-17T20:32:27;11.03;;;7.30;;
13075;SDS011;6604;52.484;13.330;2022-10-17T20:34:54;9.63;;;5.70;;
13075;SDS011;6604;52.484;13.330;2022-10-17T20:37:21;9.37;;;5.43;;
13075;SDS011;6604;52.484;13.330;2022-10-17T20:39:47;8.13;;;5.40;;
13075;SDS011;6604;52.484;13.330;2022-10-17T20:42:14;8.03;;;5.03;;
13075;SDS011;6604;52.484;13.330;2022-10-17T20:44:40;6.43;;;4.87;;
13075;SDS011;6604;52.484;13.330;2022-10-17T20:47:06;8.17;;;5.07;;
13075;SDS011;6604;52.484;13.330;2022-10-17T20:49:34;7.40;;;4.83;;
13075;SDS011;6604;52.484;13.330;2022-10-17T20:52:00;6.73;;;4.77;;
13075;SDS011;6604;52.484;13.330;2022-10-17T20:54:27;7.33;;;5.37;;
13075;SDS011;6604;52.484;13.330;2022-10-17T20:56:53;7.20;;;5.93;;
13075;SDS011;6604;52.484;13.330;2022-10-17T20:59:20;11.23;;;5.20;;
13075;SDS011;6604;52.484;13.330;2022-10-17T21:01:46;9.13;;;5.97;;
13075;SDS011;6604;52.484;13.330;2022-10-17T21:04:13;8.63;;;5.33;;
13075;SDS011;6604;52.484;13.330;2022-10-17T21:06:41;8.60;;;5.27;;
13075;SDS011;6604;52.484;13.330;2022-10-17T21:09:07;7.03;;;5.63;;
13075;SDS011;6604;52.484;13.330;2022-10-17T21:11:33;6.90;;;5.53;;
13075;SDS011;6604;52.484;13.330;2022-10-17T21:14:01;9.57;;;5.43;;
13075;SDS011;6604;52.484;13.330;2022-10-17T21:16:28;10.13;;;5.50;;
13075;SDS011;6604;52.484;13.330;2022-10-17T21:18:55;9.13;;;5.60;;
13075;SDS011;6604;52.484;13.330;2022-10-17T21:21:22;7.10;;;5.30;;
13075;SDS011;6604;52.484;13.330;2022-10-17T21:23:53;8.20;;;5.80;;
13075;SDS011;6604;52.484;13.330;2022-10-17T21:26:20;8.17;;;5.80;;
13075;SDS011;6604;52.484;13.330;2022-10-17T21:28:48;6.43;;;5.30;;
